Time;durP1;ratioP1;P1;durP2;ratioP2;P2;SDS_P1;SDS_P2;PMS_P1;PMS_P2;Temp;Humidity;BMP_temperature;BMP_pressure;BME280_temperature;BME280_humidity;BME280_pressure;Samples;Min_cycle;Max_cycle;Signal;HPM_P1;HPM_P2
2022/01/08 00:00:59;;;;;;;;;;;3.60;96.60;;;;;;5057876;28;19939;-79
2022/01/08 00:03:25;;;;;;;;;;;3.60;96.60;;;;;;5059678;28;19929;-78
2022/01/08 00:05:53;;;;;;;;;;;3.60;96.60;;;;;;5062358;28;19932;-81
2022/01/08 00:08:20;;;;;;;;;;;3.60;96.60;;;;;;5059690;28;19939;-80
2022/01/08 00:10:46;;;;;;;;;;;3.60;96.60;;;;;;5062887;28;19928;-80
2022/01/08 00:13:13;;;;;;;;;;;3.60;96.60;;;;;;5061206;28;19928;-80
2022/01/08 00:15:39;;;;;;;;;;;3.60;96.70;;;;;;5059392;28;19935;-79
2022/01/08 00:18:07;;;;;;;;;;;3.60;96.70;;;;;;5054632;28;19936;-77
2022/01/08 00:20:35;;;;;;;;;;;3.60;96.70;;;;;;5058839;28;19929;-77
2022/01/08 00:23:02;;;;;;;;;;;3.60;96.70;;;;;;5062410;28;19933;-80
2022/01/08 00:25:28;;;;;;;;;;;3.50;96.70;;;;;;5056964;28;19929;-80
2022/01/08 00:27:55;;;;;;;;;;;3.60;96.70;;;;;;5056753;28;19967;-78
2022/01/08 00:30:22;;;;;;;;;;;3.60;96.80;;;;;;5059464;28;19932;-79
2022/01/08 00:32:48;;;;;;;;;;;3.50;96.70;;;;;;5061295;28;19928;-79
2022/01/08 00:35:17;;;;;;;;;;;3.60;96.80;;;;;;5062045;28;19932;-79
2022/01/08 00:37:43;;;;;;;;;;;3.50;96.80;;;;;;5060170;28;20063;-78
2022/01/08 00:40:11;;;;;;;;;;;3.60;96.80;;;;;;5059828;28;19928;-79
2022/01/08 00:42:38;;;;;;;;;;;3.50;96.80;;;;;;5069805;28;19928;-80
2022/01/08 00:45:05;;;;;;;;;;;3.50;96.80;;;;;;5060456;28;19928;-77
2022/01/08 00:47:31;;;;;;;;;;;3.50;96.80;;;;;;5060462;28;20323;-81
2022/01/08 00:49:58;;;;;;;;;;;3.50;96.80;;;;;;5062987;28;20529;-78
2022/01/08 00:52:26;;;;;;;;;;;3.50;96.90;;;;;;5061697;28;20316;-79
2022/01/08 00:54:52;;;;;;;;;;;3.50;96.90;;;;;;5060382;28;20411;-80
2022/01/08 00:57:19;;;;;;;;;;;3.50;96.90;;;;;;5063198;28;19932;-78
2022/01/08 00:59:45;;;;;;;;;;;3.50;96.90;;;;;;5064926;28;19940;-79
2022/01/08 01:02:12;;;;;;;;;;;3.50;96.90;;;;;;5060196;28;19936;-78
2022/01/08 01:04:39;;;;;;;;;;;3.50;96.90;;;;;;5064786;28;19947;-77
2022/01/08 01:07:05;;;;;;;;;;;3.50;96.90;;;;;;5065154;28;19963;-78
2022/01/08 01:09:33;;;;;;;;;;;3.50;96.90;;;;;;5062374;28;19932;-79
2022/01/08 01:12:00;;;;;;;;;;;3.50;96.90;;;;;;5065531;28;19982;-77
2022/01/08 01:14:27;;;;;;;;;;;3.50;96.90;;;;;;5064992;28;19938;-80
2022/01/08 01:16:53;;;;;;;;;;;3.50;96.90;;;;;;5064336;28;19928;-78
2022/01/08 01:19:21;;;;;;;;;;;3.50;97.00;;;;;;5060142;28;19936;-80
2022/01/08 01:21:48;;;;;;;;;;;3.50;97.00;;;;;;5065629;28;19935;-79
2022/01/08 01:24:18;;;;;;;;;;;3.50;97.00;;;;;;5064672;28;19928;-79
2022/01/08 01:27:07;;;;;;;;;;;3.40;97.00;;;;;;5061170;28;19951;-79
2022/01/08 01:29:40;;;;;;;;;;;3.40;97.00;;;;;;5063104;28;19990;-80
2022/01/08 01:43:24;;;;;;;;;;;3.40;97.00;;;;;;5065890;28;20455;-79
2022/01/08 01:48:35;;;;;;;;;;;3.40;97.00;;;;;;5063794;28;19932;-80
2022/01/08 01:51:01;;;;;;;;;;;3.50;97.00;;;;;;5064789;28;19967;-79
2022/01/08 01:53:28;;;;;;;;;;;3.40;97.00;;;;;;5063954;28;19929;-80
2022/01/08 01:55:54;;;;;;;;;;;3.40;97.00;;;;;;5065012;28;19932;-80
2022/01/08 01:58:22;;;;;;;;;;;3.40;97.00;;;;;;5063836;28;19929;-80
2022/01/08 02:00:50;;;;;;;;;;;3.40;97.00;;;;;;5062834;28;19957;-80
2022/01/08 02:03:16;;;;;;;;;;;3.40;97.00;;;;;;5062807;28;19928;-79
2022/01/08 02:05:45;;;;;;;;;;;3.40;97.00;;;;;;5061640;28;19939;-81
2022/01/08 02:08:13;;;;;;;;;;;3.40;97.00;;;;;;5056834;28;19935;-81
2022/01/08 02:10:39;;;;;;;;;;;3.40;97.00;;;;;;5064445;28;19961;-82
2022/01/08 02:13:06;;;;;;;;;;;3.40;97.00;;;;;;5062570;28;19939;-81
2022/01/08 02:15:35;;;;;;;;;;;3.40;97.00;;;;;;5061579;28;19932;-78
2022/01/08 02:18:01;;;;;;;;;;;3.40;97.00;;;;;;5063251;28;19932;-82
2022/01/08 02:20:29;;;;;;;;;;;3.40;97.00;;;;;;5063902;28;19928;-78
2022/01/08 02:22:56;;;;;;;;;;;3.40;97.00;;;;;;5065334;28;20427;-79
2022/01/08 02:25:22;;;;;;;;;;;3.40;97.00;;;;;;5060056;28;19928;-80
2022/01/08 02:27:49;;;;;;;;;;;3.40;97.00;;;;;;5062439;28;20022;-80
2022/01/08 02:30:16;;;;;;;;;;;3.40;97.00;;;;;;5062975;28;19936;-80
2022/01/08 02:32:42;;;;;;;;;;;3.40;97.10;;;;;;5061922;28;19940;-80
2022/01/08 02:35:09;;;;;;;;;;;3.40;97.10;;;;;;5064193;28;19932;-81
2022/01/08 02:37:37;;;;;;;;;;;3.40;97.10;;;;;;5062785;28;20431;-80
2022/01/08 02:40:05;;;;;;;;;;;3.40;97.10;;;;;;5062527;28;19970;-79
2022/01/08 02:42:38;;;;;;;;;;;3.40;97.10;;;;;;5065007;28;19998;-79
2022/01/08 02:45:05;;;;;;;;;;;3.40;97.10;;;;;;5061827;28;19936;-79
2022/01/08 02:47:31;;;;;;;;;;;3.40;97.10;;;;;;5063021;28;19989;-80
2022/01/08 02:49:58;;;;;;;;;;;3.40;97.10;;;;;;5063864;28;19929;-80
2022/01/08 02:52:24;;;;;;;;;;;3.40;97.10;;;;;;5065083;28;19928;-79
2022/01/08 02:54:52;;;;;;;;;;;3.40;97.20;;;;;;5057710;28;20309;-81
2022/01/08 02:57:19;;;;;;;;;;;3.40;97.20;;;;;;5063120;28;19928;-78
2022/01/08 02:59:46;;;;;;;;;;;3.40;97.20;;;;;;5061745;28;20019;-80
2022/01/08 03:02:13;;;;;;;;;;;3.40;97.20;;;;;;5057395;28;20545;-80
2022/01/08 03:04:39;;;;;;;;;;;3.40;97.20;;;;;;5061821;28;19928;-79
2022/01/08 03:07:06;;;;;;;;;;;3.40;97.30;;;;;;5061719;28;20039;-81
2022/01/08 03:09:36;;;;;;;;;;;3.40;97.30;;;;;;5059954;28;19935;-79
2022/01/08 03:12:04;;;;;;;;;;;3.40;97.30;;;;;;5059922;28;19928;-80
2022/01/08 03:14:31;;;;;;;;;;;3.40;97.30;;;;;;5060304;28;19928;-81
2022/01/08 03:16:57;;;;;;;;;;;3.40;97.30;;;;;;5058237;28;19928;-79
2022/01/08 03:19:24;;;;;;;;;;;3.40;97.40;;;;;;5058913;28;19932;-79
2022/01/08 03:21:53;;;;;;;;;;;3.40;97.40;;;;;;5061207;28;20019;-81
2022/01/08 03:24:26;;;;;;;;;;;3.40;97.40;;;;;;5063120;28;19970;-79
2022/01/08 03:26:53;;;;;;;;;;;3.40;97.50;;;;;;5060174;28;19928;-79
2022/01/08 03:29:21;;;;;;;;;;;3.40;97.50;;;;;;5066600;28;19928;-79
2022/01/08 03:31:47;;;;;;;;;;;3.40;97.60;;;;;;5065516;28;19956;-79
2022/01/08 03:34:14;;;;;;;;;;;3.40;97.60;;;;;;5067127;28;19932;-79
2022/01/08 03:36:41;;;;;;;;;;;3.40;97.70;;;;;;5072307;28;19936;-78
2022/01/08 03:39:07;;;;;;;;;;;3.40;97.70;;;;;;5070869;28;19932;-80
2022/01/08 03:41:35;;;;;;;;;;;3.40;97.80;;;;;;5067042;28;19928;-77
2022/01/08 03:44:01;;;;;;;;;;;3.40;97.80;;;;;;5066292;28;20393;-80
2022/01/08 03:46:33;;;;;;;;;;;3.40;97.90;;;;;;5061884;28;19959;-79
2022/01/08 03:49:22;;;;;;;;;;;3.40;97.90;;;;;;5062365;28;20037;-78
2022/01/08 03:51:49;;;;;;;;;;;3.40;98.00;;;;;;5064571;28;19935;-80
2022/01/08 03:54:15;;;;;;;;;;;3.40;98.00;;;;;;5064526;28;20673;-79
2022/01/08 03:56:42;;;;;;;;;;;3.40;98.00;;;;;;5063082;28;20432;-79
2022/01/08 03:59:08;;;;;;;;;;;3.40;98.00;;;;;;5063736;28;20391;-78
2022/01/08 04:01:36;;;;;;;;;;;3.40;98.10;;;;;;5055804;28;20278;-82
2022/01/08 04:04:03;;;;;;;;;;;3.40;98.10;;;;;;5064626;28;19936;-79
2022/01/08 04:06:29;;;;;;;;;;;3.40;98.20;;;;;;5063222;28;19928;-81
2022/01/08 04:08:58;;;;;;;;;;;3.40;98.20;;;;;;5060969;28;19933;-81
2022/01/08 04:11:25;;;;;;;;;;;3.40;98.30;;;;;;5058984;28;19955;-81
2022/01/08 04:13:51;;;;;;;;;;;3.40;98.30;;;;;;5062581;28;19928;-78
2022/01/08 04:16:23;;;;;;;;;;;3.40;98.30;;;;;;5060938;28;19932;-81
2022/01/08 04:18:51;;;;;;;;;;;3.40;98.30;;;;;;5060958;28;19928;-79
2022/01/08 04:21:58;;;;;;;;;;;3.40;98.40;;;;;;5063803;28;20441;-80
2022/01/08 04:24:10;;;;;;;;;;;3.40;98.40;;;;;;5060044;28;19935;-80
2022/01/08 04:26:37;;;;;;;;;;;3.40;98.40;;;;;;5063528;28;20419;-80
2022/01/08 04:29:05;;;;;;;;;;;3.40;98.40;;;;;;5063215;28;19959;-79
2022/01/08 04:31:32;;;;;;;;;;;3.40;98.40;;;;;;5064247;28;19928;-79
2022/01/08 04:33:59;;;;;;;;;;;3.40;98.40;;;;;;5068481;28;19928;-78
2022/01/08 04:36:26;;;;;;;;;;;3.40;98.40;;;;;;5066541;28;20134;-81
2022/01/08 04:38:52;;;;;;;;;;;3.40;98.40;;;;;;5063621;28;20896;-79
2022/01/08 04:41:19;;;;;;;;;;;3.40;98.40;;;;;;5067700;28;20327;-80
2022/01/08 04:43:46;;;;;;;;;;;3.40;98.40;;;;;;5066055;28;19932;-80
2022/01/08 04:46:12;;;;;;;;;;;3.40;98.40;;;;;;5063932;28;19938;-80
2022/01/08 04:48:39;;;;;;;;;;;3.40;98.40;;;;;;5065595;28;20308;-79
2022/01/08 04:51:07;;;;;;;;;;;3.40;98.40;;;;;;5065749;28;19929;-79
2022/01/08 04:53:34;;;;;;;;;;;3.40;98.40;;;;;;5067168;28;19959;-80
2022/01/08 04:56:00;;;;;;;;;;;3.40;98.40;;;;;;5066836;28;19932;-80
2022/01/08 04:58:28;;;;;;;;;;;3.40;98.40;;;;;;5066945;28;19933;-80
2022/01/08 05:00:55;;;;;;;;;;;3.40;98.40;;;;;;5065385;28;20017;-79
2022/01/08 05:03:21;;;;;;;;;;;3.40;98.40;;;;;;5066591;28;19955;-79
2022/01/08 05:05:48;;;;;;;;;;;3.40;98.40;;;;;;5065811;28;19929;-81
2022/01/08 05:08:16;;;;;;;;;;;3.40;98.40;;;;;;5065052;28;20713;-80
2022/01/08 05:10:42;;;;;;;;;;;3.40;98.40;;;;;;5066009;28;20303;-80
2022/01/08 05:13:09;;;;;;;;;;;3.40;98.40;;;;;;5065610;28;19939;-80
2022/01/08 05:15:36;;;;;;;;;;;3.40;98.40;;;;;;5064645;28;19928;-78
2022/01/08 05:18:04;;;;;;;;;;;3.40;98.30;;;;;;5065092;28;19928;-82
2022/01/08 05:20:34;;;;;;;;;;;3.40;98.30;;;;;;5065600;28;20088;-80
2022/01/08 05:23:00;;;;;;;;;;;3.40;98.30;;;;;;5066199;28;19952;-81
2022/01/08 05:25:29;;;;;;;;;;;3.40;98.20;;;;;;5061894;28;19936;-79
2022/01/08 05:27:56;;;;;;;;;;;3.40;98.10;;;;;;5060766;28;19932;-81
2022/01/08 05:30:23;;;;;;;;;;;3.40;98.10;;;;;;5064158;28;19940;-80
2022/01/08 05:32:51;;;;;;;;;;;3.40;98.00;;;;;;5064439;28;20438;-80
2022/01/08 05:35:17;;;;;;;;;;;3.40;98.00;;;;;;5064810;28;20384;-81
2022/01/08 05:37:44;;;;;;;;;;;3.40;97.90;;;;;;5064719;28;19928;-78
2022/01/08 05:40:11;;;;;;;;;;;3.40;97.90;;;;;;5063697;28;19932;-82
2022/01/08 05:42:39;;;;;;;;;;;3.40;97.90;;;;;;5065584;28;19932;-79
2022/01/08 05:45:05;;;;;;;;;;;3.40;97.80;;;;;;5063636;28;19928;-79
2022/01/08 05:47:33;;;;;;;;;;;3.40;97.80;;;;;;5065136;28;19935;-79
2022/01/08 05:50:00;;;;;;;;;;;3.40;97.70;;;;;;5065414;28;20327;-81
2022/01/08 05:52:26;;;;;;;;;;;3.40;97.70;;;;;;5066746;28;19932;-80
2022/01/08 05:54:53;;;;;;;;;;;3.30;97.60;;;;;;5062965;28;20443;-79
2022/01/08 05:57:20;;;;;;;;;;;3.40;97.60;;;;;;5060592;28;20506;-82
2022/01/08 05:59:48;;;;;;;;;;;3.40;97.60;;;;;;5062375;28;20392;-81
2022/01/08 06:02:14;;;;;;;;;;;3.40;97.60;;;;;;5063253;28;19928;-81
2022/01/08 06:04:41;;;;;;;;;;;3.40;97.60;;;;;;5061921;28;19932;-78
2022/01/08 06:07:07;;;;;;;;;;;3.30;97.50;;;;;;5061434;28;19936;-79
2022/01/08 06:09:34;;;;;;;;;;;3.30;97.50;;;;;;5060417;28;19935;-80
2022/01/08 06:12:00;;;;;;;;;;;3.30;97.50;;;;;;5061239;28;20423;-81
2022/01/08 06:14:27;;;;;;;;;;;3.30;97.50;;;;;;5060320;28;20300;-79
2022/01/08 06:16:55;;;;;;;;;;;3.30;97.50;;;;;;5063133;28;19932;-78
2022/01/08 06:19:21;;;;;;;;;;;3.40;97.50;;;;;;5063246;28;19943;-80
2022/01/08 06:21:48;;;;;;;;;;;3.30;97.50;;;;;;5064536;28;19955;-81
2022/01/08 06:24:15;;;;;;;;;;;3.30;97.50;;;;;;5063635;28;19939;-81
2022/01/08 06:26:41;;;;;;;;;;;3.30;97.40;;;;;;5064362;28;20019;-80
2022/01/08 06:29:08;;;;;;;;;;;3.30;97.40;;;;;;5060473;28;19928;-81
2022/01/08 06:31:35;;;;;;;;;;;3.30;97.40;;;;;;5061537;28;19935;-80
2022/01/08 06:34:03;;;;;;;;;;;3.30;97.40;;;;;;5063689;28;20391;-81
2022/01/08 06:36:30;;;;;;;;;;;3.30;97.40;;;;;;5062013;28;19935;-80
2022/01/08 06:38:56;;;;;;;;;;;3.30;97.30;;;;;;5061406;28;19932;-80
2022/01/08 06:41:23;;;;;;;;;;;3.20;97.30;;;;;;5064645;28;19932;-80
2022/01/08 06:43:49;;;;;;;;;;;3.30;97.30;;;;;;5064425;28;19935;-79
2022/01/08 06:46:16;;;;;;;;;;;3.30;97.30;;;;;;5063452;28;19928;-80
2022/01/08 06:48:42;;;;;;;;;;;3.30;97.30;;;;;;5063183;28;19936;-82
2022/01/08 06:51:10;;;;;;;;;;;3.30;97.30;;;;;;5063884;28;19935;-79
2022/01/08 06:53:37;;;;;;;;;;;3.30;97.30;;;;;;5060759;28;19936;-78
2022/01/08 06:56:04;;;;;;;;;;;3.30;97.30;;;;;;5060648;28;19936;-77
2022/01/08 06:58:30;;;;;;;;;;;3.30;97.30;;;;;;5061649;28;19933;-82
2022/01/08 07:00:57;;;;;;;;;;;3.20;97.20;;;;;;5056901;28;19933;-79
2022/01/08 07:03:24;;;;;;;;;;;3.30;97.30;;;;;;5061227;28;19986;-78
2022/01/08 07:05:50;;;;;;;;;;;3.20;97.20;;;;;;5058029;28;19929;-79
2022/01/08 07:08:18;;;;;;;;;;;3.20;97.20;;;;;;5059585;28;20652;-80
2022/01/08 07:10:45;;;;;;;;;;;3.20;97.30;;;;;;5055897;28;20623;-78
2022/01/08 07:13:11;;;;;;;;;;;3.20;97.30;;;;;;5058565;28;20553;-76
2022/01/08 07:15:38;;;;;;;;;;;3.20;97.30;;;;;;5058643;28;20312;-79
2022/01/08 07:18:04;;;;;;;;;;;3.20;97.30;;;;;;5058891;28;19928;-78
2022/01/08 07:20:31;;;;;;;;;;;3.20;97.30;;;;;;5063062;28;20411;-79
2022/01/08 07:22:59;;;;;;;;;;;3.20;97.30;;;;;;5059430;28;19940;-76
2022/01/08 07:25:27;;;;;;;;;;;3.20;97.30;;;;;;5054062;28;19935;-77
2022/01/08 07:27:53;;;;;;;;;;;3.20;97.30;;;;;;5061218;28;19936;-77
2022/01/08 07:30:20;;;;;;;;;;;3.20;97.30;;;;;;5052884;28;19933;-76
2022/01/08 07:32:48;;;;;;;;;;;3.20;97.30;;;;;;5063202;28;19935;-77
2022/01/08 07:35:15;;;;;;;;;;;3.20;97.30;;;;;;5062610;28;20786;-77
2022/01/08 07:37:42;;;;;;;;;;;3.20;97.20;;;;;;5062656;28;19940;-77
2022/01/08 07:40:09;;;;;;;;;;;3.20;97.20;;;;;;5061923;28;19982;-78
2022/01/08 07:42:37;;;;;;;;;;;3.20;97.20;;;;;;5063364;28;19928;-77
2022/01/08 07:45:04;;;;;;;;;;;3.20;97.20;;;;;;5061385;28;19928;-77
2022/01/08 07:47:31;;;;;;;;;;;3.20;97.30;;;;;;5057056;28;19935;-76
2022/01/08 07:49:58;;;;;;;;;;;3.20;97.20;;;;;;5058509;28;19939;-77
2022/01/08 07:52:24;;;;;;;;;;;3.20;97.20;;;;;;5062892;28;19941;-79
2022/01/08 07:54:51;;;;;;;;;;;3.20;97.20;;;;;;5054716;28;19929;-79
2022/01/08 07:57:17;;;;;;;;;;;3.10;97.20;;;;;;5063403;28;19932;-77
2022/01/08 07:59:45;;;;;;;;;;;3.20;97.20;;;;;;5060335;28;19936;-79
2022/01/08 08:02:12;;;;;;;;;;;3.10;97.20;;;;;;5057723;28;19929;-78
2022/01/08 08:04:39;;;;;;;;;;;3.10;97.20;;;;;;5061161;28;19933;-76
2022/01/08 08:07:05;;;;;;;;;;;3.20;97.20;;;;;;5056657;28;19943;-77
2022/01/08 08:09:32;;;;;;;;;;;3.10;97.20;;;;;;5060459;28;19932;-78
2022/01/08 08:11:58;;;;;;;;;;;3.10;97.20;;;;;;5053107;28;19936;-77
2022/01/08 08:14:25;;;;;;;;;;;3.10;97.20;;;;;;5062498;28;19932;-79
2022/01/08 08:16:55;;;;;;;;;;;3.10;97.20;;;;;;5056349;28;21269;-78
2022/01/08 08:19:21;;;;;;;;;;;3.10;97.10;;;;;;5060784;28;19936;-79
2022/01/08 08:21:48;;;;;;;;;;;3.10;97.30;;;;;;5069237;28;19928;-78
2022/01/08 08:24:18;;;;;;;;;;;3.10;97.10;;;;;;5053028;28;19988;-78
2022/01/08 08:26:45;;;;;;;;;;;3.10;97.10;;;;;;5062389;28;19929;-77
2022/01/08 08:29:12;;;;;;;;;;;3.10;97.10;;;;;;5061100;28;19929;-78
2022/01/08 08:31:38;;;;;;;;;;;3.10;97.10;;;;;;5057056;28;19937;-78
2022/01/08 08:34:06;;;;;;;;;;;3.10;97.10;;;;;;5050257;28;19939;-78
2022/01/08 08:36:33;;;;;;;;;;;3.10;97.00;;;;;;5061531;28;19936;-78
2022/01/08 08:38:59;;;;;;;;;;;3.10;97.10;;;;;;5064081;28;19932;-77
2022/01/08 08:41:26;;;;;;;;;;;3.10;97.10;;;;;;5058321;28;19948;-78
2022/01/08 08:43:52;;;;;;;;;;;3.10;97.10;;;;;;5062750;28;19928;-77
2022/01/08 08:46:19;;;;;;;;;;;3.20;97.10;;;;;;5060425;28;19936;-76
2022/01/08 08:48:45;;;;;;;;;;;3.20;97.00;;;;;;5061532;28;19939;-78
2022/01/08 08:51:13;;;;;;;;;;;3.10;97.00;;;;;;5056663;28;19929;-80
2022/01/08 08:53:40;;;;;;;;;;;3.20;97.00;;;;;;5061333;28;19928;-78
2022/01/08 08:56:06;;;;;;;;;;;3.20;96.90;;;;;;5063073;28;19924;-77
2022/01/08 08:58:33;;;;;;;;;;;3.20;96.90;;;;;;5060446;28;19940;-76
2022/01/08 09:00:59;;;;;;;;;;;3.20;96.90;;;;;;5057446;28;19939;-78
2022/01/08 09:03:26;;;;;;;;;;;3.20;96.80;;;;;;5061677;28;19931;-76
2022/01/08 09:05:52;;;;;;;;;;;3.20;96.80;;;;;;5061981;28;20360;-78
2022/01/08 09:08:20;;;;;;;;;;;3.20;96.70;;;;;;5062540;28;20459;-77
2022/01/08 09:10:47;;;;;;;;;;;3.20;96.70;;;;;;5060410;28;20451;-78
2022/01/08 09:13:14;;;;;;;;;;;3.20;96.70;;;;;;5061736;28;20047;-78
2022/01/08 09:15:42;;;;;;;;;;;3.20;96.70;;;;;;5061198;28;20406;-78
2022/01/08 09:18:09;;;;;;;;;;;3.20;96.60;;;;;;5060177;28;19940;-77
2022/01/08 09:20:35;;;;;;;;;;;3.20;96.60;;;;;;5063593;28;19933;-78
2022/01/08 09:23:02;;;;;;;;;;;3.20;96.50;;;;;;5064258;28;20521;-78
2022/01/08 09:25:30;;;;;;;;;;;3.20;96.50;;;;;;5064854;28;19932;-78
2022/01/08 09:27:56;;;;;;;;;;;3.20;96.50;;;;;;5063614;28;20487;-77
2022/01/08 09:30:23;;;;;;;;;;;3.30;96.40;;;;;;5057641;28;19929;-77
2022/01/08 09:32:50;;;;;;;;;;;3.20;96.30;;;;;;5061087;28;20460;-75
2022/01/08 09:35:17;;;;;;;;;;;3.20;96.30;;;;;;5064383;28;19928;-77
2022/01/08 09:37:44;;;;;;;;;;;3.20;96.30;;;;;;5065674;28;19928;-77
2022/01/08 09:40:12;;;;;;;;;;;3.20;96.20;;;;;;5061295;28;19955;-76
2022/01/08 09:42:41;;;;;;;;;;;3.20;96.20;;;;;;5069823;28;19928;-76
2022/01/08 09:45:08;;;;;;;;;;;3.20;96.10;;;;;;5062865;28;20373;-77
2022/01/08 09:47:35;;;;;;;;;;;3.20;96.10;;;;;;5063800;28;20399;-77
2022/01/08 09:50:02;;;;;;;;;;;3.20;96.00;;;;;;5064521;28;19951;-79
2022/01/08 09:52:29;;;;;;;;;;;3.20;96.00;;;;;;5060941;28;19936;-78
2022/01/08 09:54:56;;;;;;;;;;;3.20;96.00;;;;;;5064098;28;19932;-77
2022/01/08 09:57:22;;;;;;;;;;;3.20;96.00;;;;;;5064806;28;19932;-77
2022/01/08 09:59:50;;;;;;;;;;;3.20;96.00;;;;;;5061533;28;19928;-77
2022/01/08 10:02:20;;;;;;;;;;;3.20;96.00;;;;;;5057154;28;20424;-77
2022/01/08 10:04:46;;;;;;;;;;;3.20;96.00;;;;;;5065485;28;19937;-76
2022/01/08 10:07:14;;;;;;;;;;;3.20;96.00;;;;;;5070870;28;19932;-77
2022/01/08 10:09:57;;;;;;;;;;;3.20;95.90;;;;;;5059624;28;19935;-77
2022/01/08 10:12:35;;;;;;;;;;;3.20;95.80;;;;;;5062629;28;19955;-78
2022/01/08 10:17:47;;;;;;;;;;;3.30;95.80;;;;;;5060441;28;20802;-77
2022/01/08 10:20:26;;;;;;;;;;;3.30;95.80;;;;;;5065522;28;19935;-77
2022/01/08 10:22:58;;;;;;;;;;;3.30;95.80;;;;;;5060562;28;19936;-75
2022/01/08 10:25:24;;;;;;;;;;;3.20;95.60;;;;;;5064585;28;19928;-76
2022/01/08 10:27:51;;;;;;;;;;;3.30;95.60;;;;;;5064245;28;20401;-77
2022/01/08 10:30:25;;;;;;;;;;;3.30;95.70;;;;;;5061312;28;19925;-77
2022/01/08 10:32:55;;;;;;;;;;;3.30;95.70;;;;;;5058739;28;20027;-75
2022/01/08 10:35:43;;;;;;;;;;;3.30;95.60;;;;;;5064196;28;19951;-77
2022/01/08 10:38:10;;;;;;;;;;;3.30;95.60;;;;;;5059990;28;19939;-77
2022/01/08 10:40:36;;;;;;;;;;;3.30;95.50;;;;;;5065022;28;19928;-77
2022/01/08 10:43:03;;;;;;;;;;;3.30;95.50;;;;;;5066403;28;19928;-77
2022/01/08 10:45:35;;;;;;;;;;;3.30;95.50;;;;;;5060203;28;19932;-77
2022/01/08 10:48:04;;;;;;;;;;;3.30;95.40;;;;;;5062644;28;19940;-78
2022/01/08 10:50:31;;;;;;;;;;;3.40;95.40;;;;;;5056770;28;19932;-79
2022/01/08 10:52:58;;;;;;;;;;;3.40;95.40;;;;;;5058985;28;19928;-78
2022/01/08 10:55:30;;;;;;;;;;;3.40;95.30;;;;;;5061025;28;20019;-78
2022/01/08 10:57:56;;;;;;;;;;;3.40;95.10;;;;;;5056962;28;19936;-77
2022/01/08 11:00:30;;;;;;;;;;;3.40;95.00;;;;;;5058497;28;19936;-78
2022/01/08 11:02:58;;;;;;;;;;;3.50;95.00;;;;;;5061470;28;19999;-77
2022/01/08 11:05:25;;;;;;;;;;;3.50;95.00;;;;;;5061766;28;19932;-78
2022/01/08 11:07:52;;;;;;;;;;;3.50;95.00;;;;;;5055644;28;19938;-78
2022/01/08 11:10:20;;;;;;;;;;;3.50;95.00;;;;;;5060192;28;19932;-78
2022/01/08 11:12:48;;;;;;;;;;;3.50;95.00;;;;;;5057885;28;20019;-78
2022/01/08 11:15:36;;;;;;;;;;;3.60;95.10;;;;;;5058427;28;19939;-80
2022/01/08 11:18:04;;;;;;;;;;;3.60;95.10;;;;;;5059508;28;20023;-78
2022/01/08 11:20:32;;;;;;;;;;;3.60;95.10;;;;;;5061734;28;20323;-78
2022/01/08 11:22:59;;;;;;;;;;;3.60;95.10;;;;;;5060968;28;20328;-77
2022/01/08 11:25:27;;;;;;;;;;;3.60;95.10;;;;;;5057881;28;19928;-78
2022/01/08 11:27:58;;;;;;;;;;;3.60;95.10;;;;;;5064941;28;20653;-78
2022/01/08 11:30:25;;;;;;;;;;;3.60;95.10;;;;;;5058744;28;19932;-78
2022/01/08 11:32:54;;;;;;;;;;;3.60;95.20;;;;;;5062758;28;19928;-78
2022/01/08 11:35:24;;;;;;;;;;;3.60;95.20;;;;;;5066479;28;20038;-77
2022/01/08 11:37:51;;;;;;;;;;;3.60;95.20;;;;;;5066009;28;20012;-78
2022/01/08 11:40:19;;;;;;;;;;;3.60;95.20;;;;;;5065611;28;19972;-77
2022/01/08 11:42:45;;;;;;;;;;;3.60;95.20;;;;;;5064858;28;19928;-77
2022/01/08 11:45:14;;;;;;;;;;;3.60;95.20;;;;;;5060998;28;20332;-77
2022/01/08 11:47:45;;;;;;;;;;;3.70;95.30;;;;;;5060875;28;19939;-77
2022/01/08 11:50:12;;;;;;;;;;;3.70;95.30;;;;;;5062448;28;19952;-76
2022/01/08 11:52:40;;;;;;;;;;;3.60;95.30;;;;;;5062249;28;19939;-78
2022/01/08 11:55:07;;;;;;;;;;;3.70;95.30;;;;;;5066052;28;19932;-76
2022/01/08 11:57:34;;;;;;;;;;;3.70;95.30;;;;;;5064646;28;19932;-75
2022/01/08 12:00:02;;;;;;;;;;;3.70;95.20;;;;;;5065856;28;19928;-78
2022/01/08 12:02:36;;;;;;;;;;;3.70;95.10;;;;;;5066010;28;20023;-78
2022/01/08 12:05:03;;;;;;;;;;;3.70;95.00;;;;;;5068227;28;19959;-75
2022/01/08 12:07:33;;;;;;;;;;;3.70;95.00;;;;;;5068029;28;19929;-77
2022/01/08 12:10:14;;;;;;;;;;;3.70;94.80;;;;;;5061343;28;19928;-74
2022/01/08 12:12:55;;;;;;;;;;;3.70;94.70;;;;;;5061429;28;19933;-75
2022/01/08 12:15:40;;;;;;;;;;;3.70;94.60;;;;;;5061474;28;19928;-76
2022/01/08 12:18:07;;;;;;;;;;;3.70;94.60;;;;;;5062901;28;19928;-75
2022/01/08 12:20:45;;;;;;;;;;;3.70;94.70;;;;;;5066990;28;19928;-75
2022/01/08 12:23:30;;;;;;;;;;;3.70;94.70;;;;;;5065782;28;19935;-75
2022/01/08 12:25:58;;;;;;;;;;;3.70;94.80;;;;;;5058062;28;19928;-75
2022/01/08 12:28:45;;;;;;;;;;;3.80;94.80;;;;;;5069309;28;19979;-76
2022/01/08 12:31:29;;;;;;;;;;;3.80;94.80;;;;;;5058383;28;20296;-77
2022/01/08 12:34:16;;;;;;;;;;;3.80;94.80;;;;;;5065160;28;19935;-78
2022/01/08 12:36:50;;;;;;;;;;;3.80;94.90;;;;;;5060672;28;19929;-77
2022/01/08 12:39:17;;;;;;;;;;;3.80;94.80;;;;;;5065864;28;19939;-77
2022/01/08 12:41:45;;;;;;;;;;;3.80;94.90;;;;;;5059959;28;19982;-78
2022/01/08 12:44:27;;;;;;;;;;;3.80;94.90;;;;;;5061527;28;19936;-76
2022/01/08 12:46:53;;;;;;;;;;;3.80;94.90;;;;;;5059280;28;19939;-77
2022/01/08 12:49:20;;;;;;;;;;;3.90;95.00;;;;;;5061779;28;19932;-76
2022/01/08 12:52:01;;;;;;;;;;;3.80;95.00;;;;;;5061778;28;20566;-78
2022/01/08 12:54:28;;;;;;;;;;;3.80;95.00;;;;;;5064971;28;19925;-77
2022/01/08 12:56:57;;;;;;;;;;;3.90;94.90;;;;;;5064350;28;19936;-78
2022/01/08 12:59:32;;;;;;;;;;;3.90;94.90;;;;;;5067733;28;19928;-76
2022/01/08 13:01:59;;;;;;;;;;;3.90;94.90;;;;;;5064999;28;19929;-78
2022/01/08 13:04:25;;;;;;;;;;;3.90;94.80;;;;;;5066979;28;20285;-76
2022/01/08 13:06:52;;;;;;;;;;;3.90;94.80;;;;;;5066745;28;20007;-76
2022/01/08 13:09:19;;;;;;;;;;;3.90;94.80;;;;;;5061511;28;19928;-76
2022/01/08 13:11:46;;;;;;;;;;;4.00;94.80;;;;;;5065367;28;19928;-77
2022/01/08 13:14:15;;;;;;;;;;;4.00;94.80;;;;;;5066662;28;19936;-76
2022/01/08 13:16:43;;;;;;;;;;;4.00;94.60;;;;;;5060607;28;20416;-76
2022/01/08 13:19:10;;;;;;;;;;;4.00;94.60;;;;;;5065677;28;19933;-77
2022/01/08 13:21:40;;;;;;;;;;;4.00;94.50;;;;;;5063544;28;19936;-76
2022/01/08 13:24:13;;;;;;;;;;;4.00;94.40;;;;;;5065807;28;20015;-76
2022/01/08 13:26:42;;;;;;;;;;;4.00;94.30;;;;;;5063465;28;20035;-77
2022/01/08 13:29:21;;;;;;;;;;;4.00;94.20;;;;;;5064495;28;20422;-76
2022/01/08 13:31:48;;;;;;;;;;;4.00;94.10;;;;;;5061746;28;19935;-78
2022/01/08 13:34:15;;;;;;;;;;;4.10;94.00;;;;;;5069925;28;19928;-76
2022/01/08 13:36:52;;;;;;;;;;;4.00;94.00;;;;;;5065983;28;19932;-76
2022/01/08 13:39:25;;;;;;;;;;;4.10;94.00;;;;;;5063104;28;19929;-78
2022/01/08 13:41:51;;;;;;;;;;;4.10;93.90;;;;;;5065196;28;19936;-78
2022/01/08 13:44:19;;;;;;;;;;;4.10;93.70;;;;;;5061544;28;19936;-77
2022/01/08 13:46:46;;;;;;;;;;;4.10;93.70;;;;;;5060091;28;19943;-76
2022/01/08 13:49:14;;;;;;;;;;;4.10;93.50;;;;;;5064236;28;19935;-76
2022/01/08 13:51:45;;;;;;;;;;;4.10;93.40;;;;;;5066340;28;19932;-77
2022/01/08 13:54:12;;;;;;;;;;;4.10;93.30;;;;;;5061006;28;20139;-79
2022/01/08 13:56:38;;;;;;;;;;;4.10;93.30;;;;;;5064220;28;19936;-77
2022/01/08 13:59:06;;;;;;;;;;;4.10;93.30;;;;;;5063521;28;19932;-77
2022/01/08 14:01:44;;;;;;;;;;;4.10;93.30;;;;;;5062721;28;19928;-77
2022/01/08 14:04:11;;;;;;;;;;;4.10;93.40;;;;;;5055223;28;19997;-78
2022/01/08 14:06:39;;;;;;;;;;;4.20;93.50;;;;;;5063391;28;19928;-77
2022/01/08 14:09:06;;;;;;;;;;;4.10;93.40;;;;;;5052626;28;19991;-78
2022/01/08 14:11:33;;;;;;;;;;;4.10;93.40;;;;;;5063773;28;19932;-76
2022/01/08 14:14:00;;;;;;;;;;;4.20;93.40;;;;;;5060750;28;19933;-77
2022/01/08 14:16:28;;;;;;;;;;;4.20;93.40;;;;;;5059542;28;19932;-79
2022/01/08 14:19:05;;;;;;;;;;;4.20;93.40;;;;;;5057491;28;19982;-78
2022/01/08 14:21:31;;;;;;;;;;;4.20;93.40;;;;;;5063532;28;20692;-81
2022/01/08 14:24:12;;;;;;;;;;;4.20;93.40;;;;;;5064558;28;20339;-78
2022/01/08 14:26:39;;;;;;;;;;;4.20;93.40;;;;;;5059530;28;20384;-78
2022/01/08 14:29:06;;;;;;;;;;;4.20;93.30;;;;;;5064952;28;19979;-80
2022/01/08 14:31:33;;;;;;;;;;;4.20;93.20;;;;;;5060776;28;19928;-78
2022/01/08 14:34:02;;;;;;;;;;;4.20;93.10;;;;;;5057763;28;19950;-79
2022/01/08 14:36:39;;;;;;;;;;;4.20;93.10;;;;;;5059738;28;19933;-79
2022/01/08 14:39:05;;;;;;;;;;;4.20;93.10;;;;;;5064326;28;19928;-81
2022/01/08 14:41:32;;;;;;;;;;;4.20;93.20;;;;;;5063433;28;20336;-80
2022/01/08 14:43:59;;;;;;;;;;;4.20;93.20;;;;;;5055999;28;19987;-79
2022/01/08 14:46:26;;;;;;;;;;;4.20;93.20;;;;;;5060736;28;20019;-79
2022/01/08 14:48:52;;;;;;;;;;;4.20;93.20;;;;;;5065936;28;19932;-78
2022/01/08 14:51:20;;;;;;;;;;;4.20;93.20;;;;;;5062250;28;19936;-78
2022/01/08 14:53:47;;;;;;;;;;;4.20;93.20;;;;;;5062828;28;20046;-79